createdAt,value
2017-09-08T00:00:41.972Z,74.84
2017-09-08T00:01:52.668Z,74.9
2017-09-08T00:03:03.158Z,74.84
2017-09-08T00:04:13.669Z,74.7
2017-09-08T00:05:24.118Z,74.99
2017-09-08T00:06:34.543Z,75.18
2017-09-08T00:07:45.299Z,75.47
2017-09-08T00:08:55.806Z,75.66
2017-09-08T00:10:06.226Z,75.09
2017-09-08T00:11:16.676Z,75.37
2017-09-08T00:12:27.195Z,75.47
2017-09-08T00:13:38.036Z,75.27
2017-09-08T00:14:48.489Z,75.66
2017-09-08T00:15:58.927Z,75.95
2017-09-08T00:17:09.360Z,75.76
2017-09-08T00:18:19.375Z,75.56
2017-09-08T00:19:29.756Z,75.47
2017-09-08T00:20:41.157Z,75.56
2017-09-08T00:21:51.717Z,75.95
2017-09-08T00:23:01.570Z,75.95
2017-09-08T00:24:12.015Z,76.04
2017-09-08T00:25:22.845Z,76.04
2017-09-08T00:26:32.961Z,76.62
2017-09-08T00:27:43.416Z,76.42
2017-09-08T00:28:53.898Z,76.33
2017-09-08T00:30:04.322Z,76.23
2017-09-08T00:31:15.048Z,76.33
2017-09-08T00:32:25.497Z,76.23
2017-09-08T00:33:35.172Z,76.04
2017-09-08T00:34:45.368Z,76.23
2017-09-08T00:35:55.853Z,75.98
2017-09-08T00:37:06.554Z,76.27
2017-09-08T00:38:16.539Z,76.27
2017-09-08T00:39:26.977Z,76.04
2017-09-08T00:40:37.425Z,76.37
2017-09-08T00:41:47.867Z,76.27
2017-09-08T00:42:58.644Z,76.27
2017-09-08T00:44:08.825Z,76.27
2017-09-08T00:45:19.254Z,76.56
2017-09-08T00:46:29.722Z,76.37
2017-09-08T00:47:40.151Z,76.33
2017-09-08T00:48:50.874Z,75.98
2017-09-08T00:50:01.322Z,76.27
2017-09-08T00:51:11.789Z,76.08
2017-09-08T00:52:22.250Z,76.08
2017-09-08T00:53:32.352Z,76.18
2017-09-08T00:54:43.049Z,75.79
2017-09-08T00:55:53.499Z,75.98
2017-09-08T00:57:04.891Z,75.98
2017-09-08T00:58:15.448Z,75.98
2017-09-08T00:59:25.580Z,75.79
2017-09-08T01:00:36.338Z,75.7
2017-09-08T01:01:46.475Z,75.89
2017-09-08T01:02:56.677Z,75.7
2017-09-08T01:04:07.133Z,75.89
2017-09-08T01:05:17.590Z,75.89
2017-09-08T01:06:28.303Z,75.98
2017-09-08T01:07:38.533Z,75.7
2017-09-08T01:08:48.997Z,75.7
2017-09-08T01:09:59.474Z,75.7
2017-09-08T01:11:09.963Z,75.79
2017-09-08T01:12:20.692Z,75.12
2017-09-08T01:13:31.402Z,75.31
2017-09-08T01:14:41.638Z,75.31
2017-09-08T01:15:51.849Z,75.41
2017-09-08T01:17:02.436Z,75.22
2017-09-08T01:18:13.137Z,75.31
2017-09-08T01:19:23.564Z,75.12
2017-09-08T01:20:34.006Z,75.7
2017-09-08T01:21:44.446Z,75.22
2017-09-08T01:22:54.936Z,75.31
2017-09-08T01:24:05.623Z,75.51
2017-09-08T01:25:16.045Z,75.6
2017-09-08T01:26:26.523Z,75.31
2017-09-08T01:27:36.956Z,75.51
2017-09-08T01:28:47.412Z,75.41
2017-09-08T01:29:58.149Z,75.7
2017-09-08T01:31:08.808Z,75.7
2017-09-08T01:32:18.979Z,75.51
2017-09-08T01:33:29.427Z,75.98
2017-09-08T01:34:39.860Z,75.7
2017-09-08T01:35:50.696Z,75.98
2017-09-08T01:37:01.145Z,75.98
2017-09-08T01:38:11.573Z,76.65
2017-09-08T01:39:22.008Z,76.65
2017-09-08T01:40:31.809Z,76.46
2017-09-08T01:41:42.480Z,76.46
2017-09-08T01:42:52.919Z,76.27
2017-09-08T01:44:03.349Z,76.37
2017-09-08T01:45:13.768Z,76.37
2017-09-08T01:46:24.211Z,76.27
2017-09-08T01:47:34.891Z,76.27
2017-09-08T01:48:45.359Z,76.27
2017-09-08T01:49:55.793Z,76.27
2017-09-08T01:51:06.276Z,75.98
2017-09-08T01:52:16.385Z,75.98
2017-09-08T01:53:27.059Z,76.37
2017-09-08T01:54:37.509Z,76.27
2017-09-08T01:55:47.677Z,76.18
2017-09-08T01:56:58.213Z,76.18
2017-09-08T01:58:08.739Z,76.27
2017-09-08T01:59:19.424Z,76.18
2017-09-08T02:00:29.995Z,76.46
2017-09-08T02:01:40.157Z,76.37
2017-09-08T02:02:50.606Z,76.37
2017-09-08T02:04:01.066Z,76.56
2017-09-08T02:05:11.765Z,76.08
2017-09-08T02:06:22.216Z,76.08
2017-09-08T02:07:32.703Z,76.08
2017-09-08T02:08:43.130Z,76.46
2017-09-08T02:09:53.583Z,75.89
2017-09-08T02:11:04.307Z,75.89
2017-09-08T02:12:14.762Z,76.18
2017-09-08T02:13:25.261Z,75.89
2017-09-08T02:14:35.673Z,75.98
2017-09-08T02:15:46.096Z,75.98
2017-09-08T02:16:56.804Z,76.56
2017-09-08T02:18:07.243Z,76.46
2017-09-08T02:19:17.710Z,76.27
2017-09-08T02:20:28.132Z,76.18
2017-09-08T02:21:38.564Z,76.37
2017-09-08T02:22:49.329Z,76.18
2017-09-08T02:23:59.811Z,76.27
2017-09-08T02:25:09.950Z,76.18
2017-09-08T02:26:20.417Z,76.27
2017-09-08T02:27:30.879Z,76.37
2017-09-08T02:28:41.326Z,76.18
2017-09-08T02:29:51.767Z,76.37
2017-09-08T02:31:02.237Z,76.27
2017-09-08T02:32:12.448Z,76.27
2017-09-08T02:33:22.892Z,76.37
2017-09-08T02:34:33.592Z,76.46
2017-09-08T02:35:44.027Z,76.37
2017-09-08T02:36:54.467Z,76.08
2017-09-08T02:38:04.924Z,76.08
2017-09-08T02:39:15.378Z,76.37
2017-09-08T02:40:26.145Z,76.18
2017-09-08T02:41:36.713Z,76.27
2017-09-08T02:42:47.183Z,76.18
2017-09-08T02:43:57.604Z,76.27
2017-09-08T02:45:07.407Z,76.18
2017-09-08T02:46:18.089Z,76.37
2017-09-08T02:47:28.797Z,76.37
2017-09-08T02:48:39.255Z,76.08
2017-09-08T02:49:49.664Z,75.98
2017-09-08T02:51:00.169Z,76.08
2017-09-08T02:52:10.525Z,76.08
2017-09-08T02:53:21.002Z,76.08
2017-09-08T02:54:31.149Z,76.08
2017-09-08T02:55:41.572Z,76.08
2017-09-08T02:56:51.993Z,76.08
2017-09-08T02:58:02.896Z,76.27
2017-09-08T02:59:13.353Z,76.27
2017-09-08T03:00:23.876Z,76.37
2017-09-08T03:01:34.580Z,76.27
2017-09-08T03:02:45.034Z,76.37
2017-09-08T03:03:55.811Z,76.27
2017-09-08T03:05:05.922Z,76.27
2017-09-08T03:06:16.389Z,76.56
2017-09-08T03:07:26.814Z,76.37
2017-09-08T03:08:37.574Z,76.46
2017-09-08T03:09:48.486Z,76.46
2017-09-08T03:10:58.914Z,76.94
2017-09-08T03:12:09.374Z,76.46
2017-09-08T03:13:19.700Z,76.46
2017-09-08T03:14:30.138Z,76.37
2017-09-08T03:15:41.020Z,76.46
2017-09-08T03:16:51.147Z,76.46
2017-09-08T03:18:01.609Z,76.18
2017-09-08T03:19:12.040Z,76.27
2017-09-08T03:20:22.606Z,76.37
2017-09-08T03:21:33.142Z,76.46
2017-09-08T03:22:43.583Z,76.46
2017-09-08T03:23:54.010Z,76.56
2017-09-08T03:25:04.450Z,76.56
2017-09-08T03:26:14.938Z,76.56
2017-09-08T03:27:25.644Z,76.27
2017-09-08T03:28:35.765Z,76.27
2017-09-08T03:29:45.834Z,76.94
2017-09-08T03:30:56.255Z,76.65
2017-09-08T03:32:06.699Z,76.84
2017-09-08T03:33:17.387Z,77.23
2017-09-08T03:34:27.521Z,76.94
2017-09-08T03:35:37.959Z,76.94
2017-09-08T03:36:48.374Z,77.13
2017-09-08T03:37:58.857Z,76.94
2017-09-08T03:39:09.585Z,76.75
2017-09-08T03:40:19.382Z,76.75
2017-09-08T03:41:29.814Z,76.84
2017-09-08T03:42:39.925Z,76.75
2017-09-08T03:43:50.392Z,76.84
2017-09-08T03:45:01.121Z,76.56
2017-09-08T03:46:11.283Z,76.84
2017-09-08T03:47:21.716Z,77.13
2017-09-08T03:48:32.192Z,76.94
2017-09-08T03:49:42.603Z,76.84
2017-09-08T03:50:53.502Z,76.75
2017-09-08T03:52:03.934Z,76.56
2017-09-08T03:53:13.956Z,76.84
2017-09-08T03:54:24.404Z,76.84
2017-09-08T03:55:34.831Z,76.75
2017-09-08T03:56:45.580Z,76.75
2017-09-08T03:57:55.690Z,76.75
2017-09-08T03:59:06.202Z,77.13
2017-09-08T04:00:16.319Z,76.65
2017-09-08T04:01:26.781Z,76.56
2017-09-08T04:02:37.462Z,76.4
2017-09-08T04:03:47.908Z,76.94
2017-09-08T04:04:58.362Z,76.37
2017-09-08T04:06:08.788Z,76.75
2017-09-08T04:07:19.307Z,76.46
2017-09-08T04:08:29.995Z,76.08
2017-09-08T04:09:40.427Z,76.08
2017-09-08T04:10:50.851Z,76.84
2017-09-08T04:12:02.016Z,76.27
2017-09-08T04:13:12.496Z,76.27
2017-09-08T04:14:23.190Z,76.27
2017-09-08T04:15:33.647Z,76.37
2017-09-08T04:16:44.265Z,76.5
2017-09-08T04:17:54.836Z,76.37
2017-09-08T04:19:06.346Z,76.6
2017-09-08T04:20:16.970Z,76.75
2017-09-08T04:21:27.108Z,76.56
2017-09-08T04:22:37.570Z,76.08
2017-09-08T04:23:47.980Z,76.56
2017-09-08T04:24:58.423Z,76.75
2017-09-08T04:26:09.104Z,76.56
2017-09-08T04:27:19.534Z,76.94
2017-09-08T04:28:30.096Z,76.89
2017-09-08T04:29:40.569Z,77.08
2017-09-08T04:30:51.008Z,77.04
2017-09-08T04:32:01.694Z,76.94
2017-09-08T04:33:12.118Z,76.75
2017-09-08T04:34:22.645Z,77.51
2017-09-08T04:35:33.077Z,77.23
2017-09-08T04:36:43.525Z,77.13
2017-09-08T04:37:54.182Z,77.13
2017-09-08T04:39:04.604Z,77.33
2017-09-08T04:40:15.189Z,77.33
2017-09-08T04:41:25.619Z,77.42
2017-09-08T04:42:36.214Z,77.26
2017-09-08T04:43:46.880Z,77.42
2017-09-08T04:44:57.400Z,77.61
2017-09-08T04:46:07.838Z,77.33
2017-09-08T04:47:18.289Z,77.8
2017-09-08T04:48:28.728Z,77.7
2017-09-08T04:49:39.446Z,77.33
2017-09-08T04:50:49.869Z,77.55
2017-09-08T04:51:59.991Z,77.51
2017-09-08T04:53:10.476Z,77.7
2017-09-08T04:54:20.952Z,77.51
2017-09-08T04:55:31.634Z,77.61
2017-09-08T04:56:42.086Z,77.61
2017-09-08T04:57:52.548Z,77.61
2017-09-08T04:59:02.990Z,77.75
2017-09-08T05:00:13.400Z,77.55
2017-09-08T05:01:24.075Z,77.61
2017-09-08T05:02:34.571Z,77.61
2017-09-08T05:03:44.999Z,77.61
2017-09-08T05:04:55.407Z,78.03
2017-09-08T05:06:05.899Z,77.99
2017-09-08T05:07:16.615Z,77.9
2017-09-08T05:08:27.049Z,77.9
2017-09-08T05:09:37.496Z,77.94
2017-09-08T05:10:47.926Z,78.09
2017-09-08T05:11:58.407Z,78.13
2017-09-08T05:13:09.104Z,77.9
2017-09-08T05:14:19.532Z,77.7
2017-09-08T05:15:30.162Z,77.42
2017-09-08T05:16:40.610Z,78.13
2017-09-08T05:17:51.133Z,78.57
2017-09-08T05:19:01.806Z,78.19
2017-09-08T05:20:12.233Z,78.19
2017-09-08T05:21:22.663Z,78.38
2017-09-08T05:22:32.755Z,78.22
2017-09-08T05:23:43.189Z,78.51
2017-09-08T05:24:53.869Z,78.19
2017-09-08T05:26:04.291Z,78.09
2017-09-08T05:27:14.822Z,78.42
2017-09-08T05:28:25.560Z,78.38
2017-09-08T05:29:36.057Z,78.19
2017-09-08T05:30:46.757Z,78.42
2017-09-08T05:31:57.182Z,78.22
2017-09-08T05:33:07.631Z,78.09
2017-09-08T05:34:18.134Z,77.99
2017-09-08T05:35:28.562Z,78.13
2017-09-08T05:36:40.282Z,78.03
2017-09-08T05:37:50.727Z,78.42
2017-09-08T05:39:01.199Z,78.32
2017-09-08T05:40:11.627Z,78.28
2017-09-08T05:41:22.049Z,78.09
2017-09-08T05:42:32.938Z,78.09
2017-09-08T05:43:43.198Z,78.03
2017-09-08T05:44:53.403Z,78.22
2017-09-08T05:46:03.854Z,78.22
2017-09-08T05:47:14.299Z,78.13
2017-09-08T05:48:25.048Z,77.94
2017-09-08T05:49:35.713Z,77.46
2017-09-08T05:50:46.144Z,77.65
2017-09-08T05:51:56.596Z,77.75
2017-09-08T05:53:07.026Z,77.94
2017-09-08T05:54:17.710Z,77.46
2017-09-08T05:55:28.156Z,77.65
2017-09-08T05:56:38.633Z,77.65
2017-09-08T05:57:49.078Z,77.65
2017-09-08T05:58:59.574Z,77.75
2017-09-08T06:00:10.051Z,77.75
2017-09-08T06:01:19.886Z,77.65
2017-09-08T06:02:30.403Z,77.65
2017-09-08T06:03:40.871Z,77.36
2017-09-08T06:04:50.850Z,77.26
2017-09-08T06:06:01.707Z,77.36
2017-09-08T06:07:12.143Z,77.36
2017-09-08T06:08:22.573Z,77.36
2017-09-08T06:09:33.034Z,77.46
2017-09-08T06:10:43.453Z,77.17
2017-09-08T06:11:54.185Z,77.46
2017-09-08T06:13:04.653Z,77.26
2017-09-08T06:14:15.080Z,76.79
2017-09-08T06:15:25.619Z,77.02
2017-09-08T06:16:36.272Z,76.98
2017-09-08T06:17:46.943Z,77.08
2017-09-08T06:18:57.391Z,77.26
2017-09-08T06:20:08.058Z,77.21
2017-09-08T06:21:18.481Z,77.02
2017-09-08T06:22:28.983Z,77.26
2017-09-08T06:23:39.689Z,77.11
2017-09-08T06:24:51.123Z,77.11
2017-09-08T06:26:01.580Z,76.98
2017-09-08T06:27:12.002Z,76.89
2017-09-08T06:28:22.456Z,77.02
2017-09-08T06:29:33.137Z,76.82
2017-09-08T06:30:43.266Z,76.44
2017-09-08T06:31:53.728Z,76.25
2017-09-08T06:33:04.195Z,76.54
2017-09-08T06:34:14.749Z,76.54
2017-09-08T06:35:25.518Z,76.54
2017-09-08T06:36:35.934Z,76.73
2017-09-08T06:37:46.361Z,76.54
2017-09-08T06:38:56.803Z,76.15
2017-09-08T06:40:07.533Z,76.25
2017-09-08T06:41:18.372Z,76.35
2017-09-08T06:42:28.864Z,76.15
2017-09-08T06:43:39.294Z,75.96
2017-09-08T06:44:49.722Z,75.96
2017-09-08T06:46:00.174Z,75.48
2017-09-08T06:47:10.868Z,75.29
2017-09-08T06:48:21.337Z,75.29
2017-09-08T06:49:31.819Z,75.2
2017-09-08T06:50:42.263Z,75.33
2017-09-08T06:51:52.704Z,74.82
2017-09-08T06:53:03.475Z,75.01
2017-09-08T06:54:13.913Z,74.91
2017-09-08T06:55:24.403Z,74.82
2017-09-08T06:56:34.844Z,75.1
2017-09-08T06:57:45.290Z,74.66
2017-09-08T06:58:55.988Z,74.72
2017-09-08T07:00:06.434Z,74.85
2017-09-08T07:01:16.858Z,74.72
2017-09-08T07:02:27.308Z,74.66
2017-09-08T07:03:37.777Z,75.04
2017-09-08T07:04:48.524Z,74.66
2017-09-08T07:05:58.649Z,74.85
2017-09-08T07:07:09.156Z,74.57
2017-09-08T07:08:19.616Z,74.27
2017-09-08T07:09:29.782Z,74.57
2017-09-08T07:10:39.709Z,74.47
2017-09-08T07:11:50.004Z,74.47
2017-09-08T07:13:01.469Z,74.27
2017-09-08T07:14:11.915Z,74.18
2017-09-08T07:15:22.385Z,74.18
2017-09-08T07:16:33.117Z,74.18
2017-09-08T07:17:43.554Z,73.99
2017-09-08T07:18:53.677Z,74.08
2017-09-08T07:20:04.132Z,74.08
2017-09-08T07:21:14.624Z,74.18
2017-09-08T07:22:24.995Z,74.08
2017-09-08T07:23:35.663Z,73.8
2017-09-08T07:24:46.105Z,73.99
2017-09-08T07:25:56.608Z,74.08
2017-09-08T07:27:07.050Z,73.8
2017-09-08T07:28:17.771Z,73.7
2017-09-08T07:29:28.232Z,73.8
2017-09-08T07:30:38.673Z,73.99
2017-09-08T07:31:48.353Z,73.99
2017-09-08T07:32:58.813Z,73.9
2017-09-08T07:34:09.045Z,73.51
2017-09-08T07:35:19.594Z,73.61
2017-09-08T07:36:30.047Z,73.7
2017-09-08T07:37:40.196Z,73.22
2017-09-08T07:38:50.621Z,73.22
2017-09-08T07:40:01.435Z,73.41
2017-09-08T07:41:11.882Z,73.51
2017-09-08T07:42:22.310Z,73.51
2017-09-08T07:43:32.753Z,73.51
2017-09-08T07:44:43.351Z,73.7
2017-09-08T07:45:54.122Z,73.51
2017-09-08T07:47:04.576Z,73.99
2017-09-08T07:48:14.721Z,73.8
2017-09-08T07:49:25.194Z,73.9
2017-09-08T07:50:35.626Z,74.08
2017-09-08T07:51:46.343Z,73.99
2017-09-08T07:52:56.798Z,73.9
2017-09-08T07:54:07.030Z,74.27
2017-09-08T07:55:17.466Z,74.18
2017-09-08T07:56:27.890Z,74.47
2017-09-08T07:57:38.669Z,74.57
2017-09-08T07:58:49.196Z,74.57
2017-09-08T07:59:59.352Z,74.66
2017-09-08T08:01:09.819Z,75.04
2017-09-08T08:02:20.280Z,74.66
2017-09-08T08:03:30.521Z,74.85
2017-09-08T08:04:40.525Z,74.85
2017-09-08T08:05:50.635Z,74.76
2017-09-08T08:07:01.136Z,75.23
2017-09-08T08:08:11.626Z,75.04
2017-09-08T08:09:22.333Z,75.33
2017-09-08T08:10:32.788Z,75.14
2017-09-08T08:11:43.344Z,75.14
2017-09-08T08:12:53.823Z,74.85
2017-09-08T08:14:04.407Z,75.04
2017-09-08T08:15:15.088Z,74.85
2017-09-08T08:16:25.544Z,75.04
2017-09-08T08:17:35.693Z,75.04
2017-09-08T08:18:46.175Z,75.04
2017-09-08T08:19:56.638Z,75.14
2017-09-08T08:21:07.066Z,75.04
2017-09-08T08:22:17.497Z,74.85
2017-09-08T08:23:28.069Z,74.66
2017-09-08T08:24:38.480Z,74.85
2017-09-08T08:25:48.918Z,74.66
2017-09-08T08:26:59.289Z,74.47
2017-09-08T08:28:09.410Z,74.47
2017-09-08T08:29:19.550Z,75.14
2017-09-08T08:30:30.048Z,74.57
2017-09-08T08:31:40.484Z,74.57
2017-09-08T08:32:51.213Z,74.76
2017-09-08T08:34:01.382Z,75.04
2017-09-08T08:35:12.236Z,74.66
2017-09-08T08:36:22.666Z,75.23
2017-09-08T08:37:33.279Z,75.14
2017-09-08T08:38:43.521Z,74.76
2017-09-08T08:39:53.968Z,74.66
2017-09-08T08:41:04.485Z,75.04
2017-09-08T08:42:14.597Z,75.14
2017-09-08T08:43:25.048Z,74.57
2017-09-08T08:44:35.749Z,74.76
2017-09-08T08:45:46.279Z,74.95
2017-09-08T08:46:56.256Z,74.37
2017-09-08T08:48:06.718Z,74.47
2017-09-08T08:49:17.159Z,74.85
2017-09-08T08:50:27.988Z,74.85
2017-09-08T08:51:38.032Z,74.76
2017-09-08T08:52:48.555Z,75.04
2017-09-08T08:53:59.099Z,74.85
2017-09-08T08:55:09.585Z,74.95
2017-09-08T08:56:20.376Z,75.52
2017-09-08T08:57:30.914Z,75.23
2017-09-08T08:58:41.346Z,75.71
2017-09-08T08:59:51.891Z,75.71
2017-09-08T09:01:02.061Z,76.1
2017-09-08T09:02:12.771Z,75.81
2017-09-08T09:03:23.190Z,76.1
2017-09-08T09:04:33.700Z,75.81
2017-09-08T09:05:44.137Z,75.71
2017-09-08T09:06:54.666Z,75.71
2017-09-08T09:08:05.350Z,76.1
2017-09-08T09:09:15.896Z,76.1
2017-09-08T09:10:26.435Z,75.9
2017-09-08T09:11:36.922Z,75.9
2017-09-08T09:12:47.350Z,76.1
2017-09-08T09:13:58.040Z,76.1
2017-09-08T09:15:08.522Z,75.9
2017-09-08T09:16:18.970Z,75.62
2017-09-08T09:17:29.456Z,75.81
2017-09-08T09:18:39.937Z,75.81
2017-09-08T09:19:50.189Z,75.62
2017-09-08T09:21:00.684Z,75.43
2017-09-08T09:22:11.261Z,75.33
2017-09-08T09:23:21.708Z,75.14
2017-09-08T09:24:32.146Z,75.52
2017-09-08T09:25:42.894Z,75.43
2017-09-08T09:26:53.381Z,75.23
2017-09-08T09:28:03.877Z,74.95
2017-09-08T09:29:13.981Z,75.14
2017-09-08T09:30:24.500Z,75.14
2017-09-08T09:31:35.204Z,74.85
2017-09-08T09:32:45.637Z,74.85
2017-09-08T09:33:56.078Z,74.76
2017-09-08T09:35:06.503Z,74.31
2017-09-08T09:36:16.940Z,74.51
2017-09-08T09:37:27.658Z,74.98
2017-09-08T09:38:38.101Z,74.12
2017-09-08T09:39:48.619Z,74.22
2017-09-08T09:40:58.762Z,74.02
2017-09-08T09:42:09.225Z,74.22
2017-09-08T09:43:19.953Z,73.74
2017-09-08T09:44:30.435Z,73.74
2017-09-08T09:45:41.142Z,73.55
2017-09-08T09:46:51.598Z,73.26
2017-09-08T09:48:02.060Z,73.45
2017-09-08T09:49:12.332Z,73.16
2017-09-08T09:50:22.762Z,73.16
2017-09-08T09:51:33.347Z,73.16
2017-09-08T09:52:43.796Z,73.26
2017-09-08T09:53:54.234Z,72.78
2017-09-08T09:55:04.923Z,72.59
2017-09-08T09:56:15.142Z,72.49
2017-09-08T09:57:25.621Z,72.59
2017-09-08T09:58:36.099Z,72.78
2017-09-08T09:59:46.523Z,73.07
2017-09-08T10:00:57.237Z,72.97
2017-09-08T10:02:07.698Z,72.88
2017-09-08T10:03:18.144Z,72.68
2017-09-08T10:04:28.423Z,72.88
2017-09-08T10:05:38.918Z,73.35
2017-09-08T10:06:49.625Z,73.07
2017-09-08T10:08:00.056Z,73.26
2017-09-08T10:09:10.535Z,73.45
2017-09-08T10:10:20.981Z,73.16
2017-09-08T10:11:31.462Z,72.97
2017-09-08T10:12:42.244Z,72.97
2017-09-08T10:13:52.696Z,72.78
2017-09-08T10:15:02.703Z,72.49
2017-09-08T10:16:13.145Z,72.49
2017-09-08T10:17:23.594Z,72.01
2017-09-08T10:18:34.319Z,71.82
2017-09-08T10:19:44.774Z,71.92
2017-09-08T10:20:54.901Z,71.72
2017-09-08T10:22:05.473Z,71.82
2017-09-08T10:23:16.138Z,71.53
2017-09-08T10:24:26.906Z,72.11
2017-09-08T10:25:37.346Z,71.82
2017-09-08T10:26:47.780Z,72.11
2017-09-08T10:27:58.211Z,72.01
2017-09-08T10:29:08.673Z,71.76
2017-09-08T10:30:19.359Z,71.47
2017-09-08T10:31:29.786Z,71.57
2017-09-08T10:32:40.260Z,71.57
2017-09-08T10:33:50.700Z,71.86
2017-09-08T10:35:01.358Z,71.95
2017-09-08T10:36:12.042Z,71.47
2017-09-08T10:37:22.481Z,71.28
2017-09-08T10:38:32.920Z,71.57
2017-09-08T10:39:43.522Z,71.09
2017-09-08T10:40:53.948Z,71.47
2017-09-08T10:42:04.620Z,71.28
2017-09-08T10:43:15.089Z,71.28
2017-09-08T10:44:25.138Z,71.19
2017-09-08T10:45:35.839Z,71.47
2017-09-08T10:46:46.497Z,71.28
2017-09-08T10:47:57.208Z,71.37
2017-09-08T10:49:07.632Z,71.09
2017-09-08T10:50:17.785Z,71.37
2017-09-08T10:51:28.258Z,71.47
2017-09-08T10:52:38.688Z,71.57
2017-09-08T10:53:49.375Z,71.28
2017-09-08T10:54:59.856Z,71.47
2017-09-08T10:56:10.284Z,71.28
2017-09-08T10:57:20.433Z,71.47
2017-09-08T10:58:30.855Z,71.37
2017-09-08T10:59:41.633Z,71.57
2017-09-08T11:00:51.740Z,71.19
2017-09-08T11:02:02.253Z,71.28
2017-09-08T11:03:12.253Z,71.09
2017-09-08T11:04:22.367Z,70.7
2017-09-08T11:05:33.187Z,70.9
2017-09-08T11:06:43.616Z,70.7
2017-09-08T11:07:54.054Z,70.8
2017-09-08T11:09:04.608Z,70.7
2017-09-08T11:10:15.047Z,70.23
2017-09-08T11:11:25.423Z,70.61
2017-09-08T11:12:35.878Z,70.23
2017-09-08T11:13:46.460Z,70.32
2017-09-08T11:14:56.922Z,70.03
2017-09-08T11:16:07.049Z,69.56
2017-09-08T11:17:17.849Z,69.56
2017-09-08T11:18:28.354Z,69.93
2017-09-08T11:19:38.773Z,69.26
2017-09-08T11:20:49.223Z,69.46
2017-09-08T11:21:59.678Z,68.82
2017-09-08T11:23:10.455Z,69.07
2017-09-08T11:24:20.909Z,68.69
2017-09-08T11:25:31.388Z,69.11
2017-09-08T11:26:41.837Z,68.69
2017-09-08T11:27:52.363Z,68.63
2017-09-08T11:29:02.735Z,68.59
2017-09-08T11:30:13.191Z,68.63
2017-09-08T11:31:23.707Z,68.82
2017-09-08T11:32:34.207Z,68.24
2017-09-08T11:33:44.640Z,68.53
2017-09-08T11:34:55.354Z,68.63
2017-09-08T11:36:05.809Z,68.63
2017-09-08T11:37:16.248Z,68.82
2017-09-08T11:38:26.691Z,68.73
2017-09-08T11:39:37.141Z,68.82
2017-09-08T11:40:47.544Z,68.91
2017-09-08T11:41:58.000Z,68.91
2017-09-08T11:43:08.446Z,69.11
2017-09-08T11:44:19.013Z,69.4
2017-09-08T11:45:29.486Z,69.4
2017-09-08T11:46:40.383Z,69.78
2017-09-08T11:47:50.776Z,69.59
2017-09-08T11:49:02.237Z,69.68
2017-09-08T11:50:12.697Z,69.68
2017-09-08T11:51:22.840Z,69.78
2017-09-08T11:52:33.205Z,69.4
2017-09-08T11:53:43.749Z,69.78
2017-09-08T11:54:54.266Z,69.87
2017-09-08T11:56:04.696Z,70.03
2017-09-08T11:57:15.162Z,69.65
2017-09-08T11:58:25.907Z,70.03
2017-09-08T11:59:36.414Z,70.23
2017-09-08T12:00:46.881Z,70.32
2017-09-08T12:01:56.694Z,70.23
2017-09-08T12:03:08.353Z,70.61
2017-09-08T12:04:19.071Z,71.19
2017-09-08T12:05:29.547Z,71.47
2017-09-08T12:06:40.095Z,71.57
2017-09-08T12:07:50.220Z,71.37
2017-09-08T12:09:00.680Z,71.37
2017-09-08T12:10:10.962Z,71.47
2017-09-08T12:11:21.432Z,72.05
2017-09-08T12:12:31.859Z,71.76
2017-09-08T12:13:42.420Z,71.86
2017-09-08T12:14:52.877Z,71.57
2017-09-08T12:16:03.595Z,71.95
2017-09-08T12:17:14.271Z,72.24
2017-09-08T12:18:24.717Z,72.24
2017-09-08T12:19:36.119Z,72.14
2017-09-08T12:20:46.624Z,72.05
2017-09-08T12:21:57.006Z,72.24
2017-09-08T12:23:07.158Z,72.24
2017-09-08T12:24:17.623Z,72.33
2017-09-08T12:25:28.096Z,72.24
2017-09-08T12:26:38.681Z,72.24
2017-09-08T12:27:49.357Z,72.24
2017-09-08T12:28:59.847Z,72.33
2017-09-08T12:30:10.338Z,72.43
2017-09-08T12:31:20.791Z,71.76
2017-09-08T12:32:31.246Z,72.14
2017-09-08T12:33:41.501Z,72.05
2017-09-08T12:34:51.936Z,71.76
2017-09-08T12:36:02.500Z,71.76
2017-09-08T12:37:13.193Z,72.05
2017-09-08T12:38:23.643Z,72.05
2017-09-08T12:39:34.439Z,71.47
2017-09-08T12:40:44.901Z,72.05
2017-09-08T12:41:55.354Z,72.05
2017-09-08T12:43:05.877Z,71.61
2017-09-08T12:44:16.346Z,72.14
2017-09-08T12:45:27.299Z,71.98
2017-09-08T12:46:37.852Z,71.89
2017-09-08T12:47:48.328Z,71.61
2017-09-08T12:48:58.789Z,71.51
2017-09-08T12:50:09.463Z,71.8
2017-09-08T12:51:20.150Z,71.22
2017-09-08T12:52:30.499Z,71.61
2017-09-08T12:53:40.959Z,70.84
2017-09-08T12:54:51.418Z,70.55
2017-09-08T12:56:01.854Z,70.55
2017-09-08T12:57:12.648Z,70.93
2017-09-08T12:58:23.102Z,71.12
2017-09-08T12:59:33.539Z,70.07
2017-09-08T13:00:44.107Z,70.45
2017-09-08T13:01:54.646Z,70.55
2017-09-08T13:03:05.406Z,70.17
2017-09-08T13:04:15.933Z,70.2
2017-09-08T13:05:26.585Z,69.72
2017-09-08T13:06:37.154Z,70.01
2017-09-08T13:07:47.785Z,69.62
2017-09-08T13:08:58.494Z,69.81
2017-09-08T13:10:08.939Z,69.24
2017-09-08T13:11:19.435Z,69.43
2017-09-08T13:12:29.477Z,69.05
2017-09-08T13:13:39.941Z,68.95
2017-09-08T13:14:50.814Z,68.85
2017-09-08T13:16:01.265Z,68.95
2017-09-08T13:17:11.726Z,68.95
2017-09-08T13:18:23.265Z,68.85
2017-09-08T13:19:33.971Z,68.95
2017-09-08T13:20:44.709Z,68.85
2017-09-08T13:21:55.151Z,68.28
2017-09-08T13:23:05.603Z,68.51
2017-09-08T13:24:16.309Z,68.31
2017-09-08T13:25:26.982Z,68.37
2017-09-08T13:26:37.728Z,68.37
2017-09-08T13:27:48.400Z,68.28
2017-09-08T13:28:59.050Z,68.47
2017-09-08T13:30:09.228Z,68.47
2017-09-08T13:31:19.673Z,68.57
2017-09-08T13:32:30.423Z,67.99
2017-09-08T13:33:40.888Z,68.47
2017-09-08T13:34:51.094Z,68.28
2017-09-08T13:36:01.529Z,68.37
2017-09-08T13:37:11.994Z,68.18
2017-09-08T13:38:22.797Z,68.37
2017-09-08T13:39:33.243Z,68.18
2017-09-08T13:40:43.700Z,68.37
2017-09-08T13:41:54.150Z,68.28
2017-09-08T13:43:04.655Z,68.28
2017-09-08T13:44:15.362Z,68.28
2017-09-08T13:45:25.794Z,68.18
2017-09-08T13:46:36.244Z,68.57
2017-09-08T13:47:46.539Z,68.28
2017-09-08T13:48:56.995Z,68.47
2017-09-08T13:50:07.435Z,68.28
2017-09-08T13:51:17.886Z,68.76
2017-09-08T13:52:28.352Z,68.18
2017-09-08T13:53:38.843Z,68.28
2017-09-08T13:54:49.543Z,68.28
2017-09-08T13:56:00.381Z,68.28
2017-09-08T13:57:10.845Z,68.28
2017-09-08T13:58:20.996Z,68.28
2017-09-08T13:59:31.459Z,68.37
2017-09-08T14:00:41.981Z,68.66
2017-09-08T14:01:52.974Z,68.95
2017-09-08T14:03:03.396Z,68.85
2017-09-08T14:04:13.846Z,68.95
2017-09-08T14:05:24.354Z,69.24
2017-09-08T14:06:35.012Z,69.34
2017-09-08T14:07:45.721Z,69.68
2017-09-08T14:08:56.244Z,69.14
2017-09-08T14:10:06.732Z,69.4
2017-09-08T14:11:17.251Z,69.59
2017-09-08T14:12:27.711Z,70.07
2017-09-08T14:13:38.695Z,69.87
2017-09-08T14:14:49.152Z,70.36
2017-09-08T14:15:59.828Z,70.36
2017-09-08T14:17:10.310Z,70.26
2017-09-08T14:18:20.399Z,70.26
2017-09-08T14:19:31.384Z,70.17
2017-09-08T14:20:41.579Z,71.03
2017-09-08T14:21:52.180Z,70.84
2017-09-08T14:23:02.625Z,70.74
2017-09-08T14:24:12.796Z,70.64
2017-09-08T14:25:23.611Z,70.64
2017-09-08T14:26:34.094Z,70.74
2017-09-08T14:27:44.524Z,71.03
2017-09-08T14:28:55.060Z,70.36
2017-09-08T14:30:05.528Z,70.45
2017-09-08T14:31:16.269Z,70.07
2017-09-08T14:32:26.764Z,70.36
2017-09-08T14:33:37.222Z,70.55
2017-09-08T14:34:47.665Z,70.36
2017-09-08T14:35:58.139Z,70.17
2017-09-08T14:37:08.948Z,70.36
2017-09-08T14:38:19.411Z,70.55
2017-09-08T14:39:30.308Z,70.55
2017-09-08T14:40:40.751Z,70.36
2017-09-08T14:41:51.497Z,70.45
2017-09-08T14:43:02.233Z,70.26
2017-09-08T14:44:12.794Z,69.87
2017-09-08T14:45:23.437Z,69.97
2017-09-08T14:46:34.075Z,70.07
2017-09-08T14:47:44.204Z,69.87
2017-09-08T14:48:54.937Z,69.87
2017-09-08T14:50:05.383Z,70.07
2017-09-08T14:51:16.120Z,69.49
2017-09-08T14:52:26.610Z,69.59
2017-09-08T14:53:37.100Z,69.78
2017-09-08T14:54:47.943Z,69.78
2017-09-08T14:55:58.478Z,69.68
2017-09-08T14:57:08.980Z,69.68
2017-09-08T14:58:19.484Z,70.07
2017-09-08T14:59:30.001Z,69.78
2017-09-08T15:00:40.455Z,70.07
2017-09-08T15:01:50.995Z,70.17
2017-09-08T15:03:01.447Z,70.07
2017-09-08T15:04:11.918Z,70.07
2017-09-08T15:05:22.359Z,69.97
2017-09-08T15:06:33.143Z,70.17
2017-09-08T15:07:43.639Z,70.26
2017-09-08T15:08:54.170Z,70.36
2017-09-08T15:10:04.318Z,70.26